sensor_id;sensor_type;location;lat;lon;timestamp;P1;durP1;ratioP1;P2;durP2;ratioP2
67348;SDS011;54234;50.320;3.474;2022-08-07T00:01:06;0.30;;;0.30;;
67348;SDS011;54234;50.320;3.474;2022-08-07T00:03:32;0.30;;;0.30;;
67348;SDS011;54234;50.320;3.474;2022-08-07T00:05:57;0.30;;;0.30;;
67348;SDS011;54234;50.320;3.474;2022-08-07T00:08:22;0.30;;;0.30;;
67348;SDS011;54234;50.320;3.474;2022-08-07T00:10:48;0.30;;;0.30;;
67348;SDS011;54234;50.320;3.474;2022-08-07T00:13:14;0.30;;;0.30;;
67348;SDS011;54234;50.320;3.474;2022-08-07T00:15:39;0.30;;;0.30;;
67348;SDS011;54234;50.320;3.474;2022-08-07T00:18:04;0.30;;;0.30;;
67348;SDS011;54234;50.320;3.474;2022-08-07T00:20:30;0.30;;;0.30;;
67348;SDS011;54234;50.320;3.474;2022-08-07T00:22:55;0.30;;;0.30;;
67348;SDS011;54234;50.320;3.474;2022-08-07T00:25:20;0.30;;;0.30;;
67348;SDS011;54234;50.320;3.474;2022-08-07T00:27:48;0.30;;;0.30;;
67348;SDS011;54234;50.320;3.474;2022-08-07T00:30:14;0.30;;;0.30;;
67348;SDS011;54234;50.320;3.474;2022-08-07T00:32:39;0.30;;;0.30;;
67348;SDS011;54234;50.320;3.474;2022-08-07T00:35:04;0.30;;;0.30;;
67348;SDS011;54234;50.320;3.474;2022-08-07T00:37:30;0.30;;;0.30;;
67348;SDS011;54234;50.320;3.474;2022-08-07T00:39:55;0.30;;;0.30;;
67348;SDS011;54234;50.320;3.474;2022-08-07T00:42:20;0.30;;;0.30;;
67348;SDS011;54234;50.320;3.474;2022-08-07T00:44:45;0.30;;;0.30;;
67348;SDS011;54234;50.320;3.474;2022-08-07T00:47:11;0.30;;;0.30;;
67348;SDS011;54234;50.320;3.474;2022-08-07T00:49:36;0.30;;;0.30;;
67348;SDS011;54234;50.320;3.474;2022-08-07T00:52:04;0.30;;;0.30;;
67348;SDS011;54234;50.320;3.474;2022-08-07T00:54:29;0.30;;;0.30;;
67348;SDS011;54234;50.320;3.474;2022-08-07T00:56:54;0.30;;;0.30;;
67348;SDS011;54234;50.320;3.474;2022-08-07T00:59:20;0.40;;;0.40;;
67348;SDS011;54234;50.320;3.474;2022-08-07T01:01:45;0.30;;;0.30;;
67348;SDS011;54234;50.320;3.474;2022-08-07T01:04:12;0.30;;;0.30;;
67348;SDS011;54234;50.320;3.474;2022-08-07T01:06:39;0.30;;;0.30;;
67348;SDS011;54234;50.320;3.474;2022-08-07T01:09:04;0.30;;;0.30;;
67348;SDS011;54234;50.320;3.474;2022-08-07T01:11:30;0.30;;;0.30;;
67348;SDS011;54234;50.320;3.474;2022-08-07T01:13:55;0.30;;;0.30;;
67348;SDS011;54234;50.320;3.474;2022-08-07T01:16:21;0.30;;;0.30;;
67348;SDS011;54234;50.320;3.474;2022-08-07T01:18:46;0.30;;;0.30;;
67348;SDS011;54234;50.320;3.474;2022-08-07T01:21:12;0.30;;;0.30;;
67348;SDS011;54234;50.320;3.474;2022-08-07T01:23:38;0.30;;;0.30;;
67348;SDS011;54234;50.320;3.474;2022-08-07T01:26:04;0.30;;;0.30;;
67348;SDS011;54234;50.320;3.474;2022-08-07T01:28:29;0.30;;;0.30;;
67348;SDS011;54234;50.320;3.474;2022-08-07T01:30:55;0.30;;;0.30;;
67348;SDS011;54234;50.320;3.474;2022-08-07T01:33:20;0.30;;;0.30;;
67348;SDS011;54234;50.320;3.474;2022-08-07T01:35:46;0.30;;;0.30;;
67348;SDS011;54234;50.320;3.474;2022-08-07T01:38:12;0.30;;;0.30;;
67348;SDS011;54234;50.320;3.474;2022-08-07T01:40:37;0.30;;;0.30;;
67348;SDS011;54234;50.320;3.474;2022-08-07T01:43:03;0.30;;;0.30;;
67348;SDS011;54234;50.320;3.474;2022-08-07T01:45:29;0.30;;;0.30;;
67348;SDS011;54234;50.320;3.474;2022-08-07T01:47:54;0.30;;;0.30;;
67348;SDS011;54234;50.320;3.474;2022-08-07T01:50:20;0.30;;;0.30;;
67348;SDS011;54234;50.320;3.474;2022-08-07T01:52:46;0.30;;;0.30;;
67348;SDS011;54234;50.320;3.474;2022-08-07T01:55:13;0.20;;;0.20;;
67348;SDS011;54234;50.320;3.474;2022-08-07T01:57:39;0.30;;;0.30;;
67348;SDS011;54234;50.320;3.474;2022-08-07T02:00:06;0.30;;;0.30;;
67348;SDS011;54234;50.320;3.474;2022-08-07T02:02:35;0.30;;;0.30;;
67348;SDS011;54234;50.320;3.474;2022-08-07T02:05:03;0.30;;;0.30;;
67348;SDS011;54234;50.320;3.474;2022-08-07T02:07:31;0.30;;;0.30;;
67348;SDS011;54234;50.320;3.474;2022-08-07T02:09:57;0.30;;;0.30;;
67348;SDS011;54234;50.320;3.474;2022-08-07T02:12:24;0.30;;;0.30;;
67348;SDS011;54234;50.320;3.474;2022-08-07T02:14:53;0.30;;;0.30;;
67348;SDS011;54234;50.320;3.474;2022-08-07T02:17:19;0.30;;;0.30;;
67348;SDS011;54234;50.320;3.474;2022-08-07T02:19:46;0.30;;;0.30;;
67348;SDS011;54234;50.320;3.474;2022-08-07T02:22:12;0.30;;;0.30;;
67348;SDS011;54234;50.320;3.474;2022-08-07T02:24:39;0.30;;;0.30;;
67348;SDS011;54234;50.320;3.474;2022-08-07T02:27:05;0.28;;;0.28;;
67348;SDS011;54234;50.320;3.474;2022-08-07T02:29:32;0.30;;;0.30;;
67348;SDS011;54234;50.320;3.474;2022-08-07T02:31:59;0.30;;;0.30;;
67348;SDS011;54234;50.320;3.474;2022-08-07T02:34:25;0.30;;;0.30;;
67348;SDS011;54234;50.320;3.474;2022-08-07T02:36:51;0.30;;;0.30;;
67348;SDS011;54234;50.320;3.474;2022-08-07T02:39:16;0.30;;;0.30;;
67348;SDS011;54234;50.320;3.474;2022-08-07T02:41:43;0.30;;;0.30;;
67348;SDS011;54234;50.320;3.474;2022-08-07T02:44:08;0.20;;;0.20;;
67348;SDS011;54234;50.320;3.474;2022-08-07T02:46:34;0.30;;;0.30;;
67348;SDS011;54234;50.320;3.474;2022-08-07T02:49:00;0.30;;;0.30;;
67348;SDS011;54234;50.320;3.474;2022-08-07T02:51:26;0.30;;;0.30;;
67348;SDS011;54234;50.320;3.474;2022-08-07T02:53:51;0.30;;;0.30;;
67348;SDS011;54234;50.320;3.474;2022-08-07T02:56:18;0.30;;;0.30;;
67348;SDS011;54234;50.320;3.474;2022-08-07T02:58:45;0.30;;;0.30;;
67348;SDS011;54234;50.320;3.474;2022-08-07T03:01:10;0.30;;;0.30;;
67348;SDS011;54234;50.320;3.474;2022-08-07T03:03:36;0.30;;;0.30;;
67348;SDS011;54234;50.320;3.474;2022-08-07T03:06:02;0.30;;;0.30;;
67348;SDS011;54234;50.320;3.474;2022-08-07T03:08:27;0.30;;;0.30;;
67348;SDS011;54234;50.320;3.474;2022-08-07T03:10:53;0.30;;;0.30;;
67348;SDS011;54234;50.320;3.474;2022-08-07T03:13:19;0.30;;;0.30;;
67348;SDS011;54234;50.320;3.474;2022-08-07T03:15:45;0.30;;;0.30;;
67348;SDS011;54234;50.320;3.474;2022-08-07T03:18:11;0.30;;;0.30;;
67348;SDS011;54234;50.320;3.474;2022-08-07T03:20:37;0.30;;;0.30;;
67348;SDS011;54234;50.320;3.474;2022-08-07T03:23:03;0.30;;;0.30;;
67348;SDS011;54234;50.320;3.474;2022-08-07T03:25:28;0.30;;;0.30;;
67348;SDS011;54234;50.320;3.474;2022-08-07T03:27:55;0.30;;;0.30;;
67348;SDS011;54234;50.320;3.474;2022-08-07T03:30:21;0.30;;;0.30;;
67348;SDS011;54234;50.320;3.474;2022-08-07T03:32:47;0.30;;;0.30;;
67348;SDS011;54234;50.320;3.474;2022-08-07T03:35:13;0.30;;;0.30;;
67348;SDS011;54234;50.320;3.474;2022-08-07T03:37:40;0.30;;;0.30;;
67348;SDS011;54234;50.320;3.474;2022-08-07T03:40:06;0.30;;;0.30;;
67348;SDS011;54234;50.320;3.474;2022-08-07T03:42:33;0.30;;;0.30;;
67348;SDS011;54234;50.320;3.474;2022-08-07T03:44:58;0.30;;;0.30;;
67348;SDS011;54234;50.320;3.474;2022-08-07T03:47:24;0.30;;;0.30;;
67348;SDS011;54234;50.320;3.474;2022-08-07T03:49:50;0.30;;;0.30;;
67348;SDS011;54234;50.320;3.474;2022-08-07T03:52:16;0.30;;;0.30;;
67348;SDS011;54234;50.320;3.474;2022-08-07T03:54:41;0.30;;;0.30;;
67348;SDS011;54234;50.320;3.474;2022-08-07T03:57:06;0.30;;;0.30;;
67348;SDS011;54234;50.320;3.474;2022-08-07T03:59:32;0.30;;;0.30;;
67348;SDS011;54234;50.320;3.474;2022-08-07T04:01:58;0.30;;;0.30;;
67348;SDS011;54234;50.320;3.474;2022-08-07T04:04:23;0.30;;;0.30;;
67348;SDS011;54234;50.320;3.474;2022-08-07T04:06:49;0.30;;;0.30;;
67348;SDS011;54234;50.320;3.474;2022-08-07T04:09:15;0.30;;;0.30;;
67348;SDS011;54234;50.320;3.474;2022-08-07T04:11:40;0.40;;;0.40;;
67348;SDS011;54234;50.320;3.474;2022-08-07T04:14:05;0.30;;;0.30;;
67348;SDS011;54234;50.320;3.474;2022-08-07T04:16:31;0.30;;;0.30;;
67348;SDS011;54234;50.320;3.474;2022-08-07T04:18:57;0.30;;;0.30;;
67348;SDS011;54234;50.320;3.474;2022-08-07T04:21:22;0.30;;;0.30;;
67348;SDS011;54234;50.320;3.474;2022-08-07T04:23:48;0.30;;;0.30;;
67348;SDS011;54234;50.320;3.474;2022-08-07T04:26:14;0.30;;;0.30;;
67348;SDS011;54234;50.320;3.474;2022-08-07T04:28:39;0.30;;;0.30;;
67348;SDS011;54234;50.320;3.474;2022-08-07T04:31:04;0.30;;;0.30;;
67348;SDS011;54234;50.320;3.474;2022-08-07T04:33:30;0.30;;;0.30;;
67348;SDS011;54234;50.320;3.474;2022-08-07T04:35:56;0.30;;;0.30;;
67348;SDS011;54234;50.320;3.474;2022-08-07T04:38:21;0.30;;;0.30;;
67348;SDS011;54234;50.320;3.474;2022-08-07T04:40:46;0.30;;;0.30;;
67348;SDS011;54234;50.320;3.474;2022-08-07T04:43:15;0.30;;;0.30;;
67348;SDS011;54234;50.320;3.474;2022-08-07T04:51:27;0.30;;;0.30;;
67348;SDS011;54234;50.320;3.474;2022-08-07T04:56:25;0.30;;;0.30;;
67348;SDS011;54234;50.320;3.474;2022-08-07T05:01:36;0.30;;;0.30;;
67348;SDS011;54234;50.320;3.474;2022-08-07T05:04:15;0.30;;;0.30;;
67348;SDS011;54234;50.320;3.474;2022-08-07T05:09:34;0.30;;;0.30;;
67348;SDS011;54234;50.320;3.474;2022-08-07T05:12:03;0.30;;;0.30;;
67348;SDS011;54234;50.320;3.474;2022-08-07T05:14:39;0.30;;;0.30;;
67348;SDS011;54234;50.320;3.474;2022-08-07T05:17:06;0.30;;;0.30;;
67348;SDS011;54234;50.320;3.474;2022-08-07T05:19:39;0.30;;;0.30;;
67348;SDS011;54234;50.320;3.474;2022-08-07T05:22:06;0.30;;;0.30;;
67348;SDS011;54234;50.320;3.474;2022-08-07T05:24:32;0.30;;;0.30;;
67348;SDS011;54234;50.320;3.474;2022-08-07T05:26:58;0.30;;;0.30;;
67348;SDS011;54234;50.320;3.474;2022-08-07T05:29:24;0.30;;;0.30;;
67348;SDS011;54234;50.320;3.474;2022-08-07T05:31:50;0.30;;;0.30;;
67348;SDS011;54234;50.320;3.474;2022-08-07T05:34:15;0.30;;;0.30;;
67348;SDS011;54234;50.320;3.474;2022-08-07T05:36:42;0.30;;;0.30;;
67348;SDS011;54234;50.320;3.474;2022-08-07T05:39:08;0.30;;;0.30;;
67348;SDS011;54234;50.320;3.474;2022-08-07T05:41:34;0.30;;;0.30;;
67348;SDS011;54234;50.320;3.474;2022-08-07T05:43:59;0.30;;;0.30;;
67348;SDS011;54234;50.320;3.474;2022-08-07T05:46:25;0.30;;;0.30;;
67348;SDS011;54234;50.320;3.474;2022-08-07T05:48:51;0.30;;;0.30;;
67348;SDS011;54234;50.320;3.474;2022-08-07T05:51:17;0.30;;;0.30;;
67348;SDS011;54234;50.320;3.474;2022-08-07T05:53:43;0.30;;;0.30;;
67348;SDS011;54234;50.320;3.474;2022-08-07T05:56:08;0.30;;;0.30;;
67348;SDS011;54234;50.320;3.474;2022-08-07T05:58:36;0.30;;;0.30;;
67348;SDS011;54234;50.320;3.474;2022-08-07T06:01:02;0.30;;;0.30;;
67348;SDS011;54234;50.320;3.474;2022-08-07T06:03:29;0.30;;;0.30;;
67348;SDS011;54234;50.320;3.474;2022-08-07T06:05:54;0.30;;;0.30;;
67348;SDS011;54234;50.320;3.474;2022-08-07T06:08:20;0.30;;;0.30;;
67348;SDS011;54234;50.320;3.474;2022-08-07T06:10:46;0.30;;;0.30;;
67348;SDS011;54234;50.320;3.474;2022-08-07T06:13:11;0.30;;;0.30;;
67348;SDS011;54234;50.320;3.474;2022-08-07T06:15:36;0.30;;;0.30;;
67348;SDS011;54234;50.320;3.474;2022-08-07T06:18:03;0.30;;;0.30;;
67348;SDS011;54234;50.320;3.474;2022-08-07T06:20:29;0.30;;;0.30;;
67348;SDS011;54234;50.320;3.474;2022-08-07T06:22:54;0.30;;;0.30;;
67348;SDS011;54234;50.320;3.474;2022-08-07T06:25:19;0.30;;;0.30;;
67348;SDS011;54234;50.320;3.474;2022-08-07T06:27:45;0.30;;;0.30;;
67348;SDS011;54234;50.320;3.474;2022-08-07T06:30:10;0.30;;;0.30;;
67348;SDS011;54234;50.320;3.474;2022-08-07T06:32:36;0.30;;;0.30;;
67348;SDS011;54234;50.320;3.474;2022-08-07T06:35:01;0.30;;;0.30;;
67348;SDS011;54234;50.320;3.474;2022-08-07T06:37:27;0.30;;;0.30;;
67348;SDS011;54234;50.320;3.474;2022-08-07T06:39:52;0.30;;;0.30;;
67348;SDS011;54234;50.320;3.474;2022-08-07T06:42:19;0.30;;;0.30;;
67348;SDS011;54234;50.320;3.474;2022-08-07T06:44:46;0.30;;;0.30;;
67348;SDS011;54234;50.320;3.474;2022-08-07T06:47:11;0.30;;;0.30;;
67348;SDS011;54234;50.320;3.474;2022-08-07T06:49:37;0.30;;;0.30;;
67348;SDS011;54234;50.320;3.474;2022-08-07T06:52:02;0.30;;;0.30;;
67348;SDS011;54234;50.320;3.474;2022-08-07T06:54:29;0.30;;;0.30;;
67348;SDS011;54234;50.320;3.474;2022-08-07T06:56:55;0.30;;;0.30;;
67348;SDS011;54234;50.320;3.474;2022-08-07T06:59:23;0.30;;;0.30;;
67348;SDS011;54234;50.320;3.474;2022-08-07T07:01:49;0.30;;;0.30;;
67348;SDS011;54234;50.320;3.474;2022-08-07T07:04:16;0.30;;;0.30;;
67348;SDS011;54234;50.320;3.474;2022-08-07T07:06:42;0.30;;;0.30;;
67348;SDS011;54234;50.320;3.474;2022-08-07T07:11:57;0.30;;;0.30;;
67348;SDS011;54234;50.320;3.474;2022-08-07T07:14:24;0.30;;;0.30;;
67348;SDS011;54234;50.320;3.474;2022-08-07T07:16:50;0.30;;;0.30;;
67348;SDS011;54234;50.320;3.474;2022-08-07T07:19:18;0.25;;;0.25;;
67348;SDS011;54234;50.320;3.474;2022-08-07T07:21:44;0.20;;;0.20;;
67348;SDS011;54234;50.320;3.474;2022-08-07T07:24:10;0.30;;;0.30;;
67348;SDS011;54234;50.320;3.474;2022-08-07T07:26:36;0.30;;;0.30;;
67348;SDS011;54234;50.320;3.474;2022-08-07T07:29:04;0.30;;;0.30;;
67348;SDS011;54234;50.320;3.474;2022-08-07T07:31:33;0.30;;;0.30;;
67348;SDS011;54234;50.320;3.474;2022-08-07T07:34:02;0.30;;;0.30;;
67348;SDS011;54234;50.320;3.474;2022-08-07T07:36:29;0.30;;;0.30;;
67348;SDS011;54234;50.320;3.474;2022-08-07T07:38:55;0.30;;;0.30;;
67348;SDS011;54234;50.320;3.474;2022-08-07T07:41:21;0.30;;;0.30;;
67348;SDS011;54234;50.320;3.474;2022-08-07T07:43:48;0.30;;;0.30;;
67348;SDS011;54234;50.320;3.474;2022-08-07T07:46:14;0.30;;;0.30;;
67348;SDS011;54234;50.320;3.474;2022-08-07T07:48:40;0.30;;;0.30;;
67348;SDS011;54234;50.320;3.474;2022-08-07T07:51:06;0.30;;;0.30;;
67348;SDS011;54234;50.320;3.474;2022-08-07T07:53:31;0.30;;;0.30;;
67348;SDS011;54234;50.320;3.474;2022-08-07T07:55:58;0.35;;;0.35;;
67348;SDS011;54234;50.320;3.474;2022-08-07T07:58:33;0.30;;;0.30;;
67348;SDS011;54234;50.320;3.474;2022-08-07T08:00:59;0.30;;;0.30;;
67348;SDS011;54234;50.320;3.474;2022-08-07T08:03:25;0.30;;;0.30;;
67348;SDS011;54234;50.320;3.474;2022-08-07T08:05:51;0.30;;;0.30;;
67348;SDS011;54234;50.320;3.474;2022-08-07T08:08:17;0.30;;;0.30;;
67348;SDS011;54234;50.320;3.474;2022-08-07T08:10:43;0.30;;;0.30;;
67348;SDS011;54234;50.320;3.474;2022-08-07T08:13:09;0.30;;;0.30;;
67348;SDS011;54234;50.320;3.474;2022-08-07T08:15:35;0.30;;;0.30;;
67348;SDS011;54234;50.320;3.474;2022-08-07T08:18:02;0.30;;;0.30;;
67348;SDS011;54234;50.320;3.474;2022-08-07T08:20:28;0.30;;;0.30;;
67348;SDS011;54234;50.320;3.474;2022-08-07T08:22:55;0.30;;;0.30;;
67348;SDS011;54234;50.320;3.474;2022-08-07T08:25:39;0.30;;;0.30;;
67348;SDS011;54234;50.320;3.474;2022-08-07T08:28:26;0.30;;;0.30;;
67348;SDS011;54234;50.320;3.474;2022-08-07T08:30:55;0.30;;;0.30;;
67348;SDS011;54234;50.320;3.474;2022-08-07T08:33:22;0.30;;;0.30;;
67348;SDS011;54234;50.320;3.474;2022-08-07T08:35:48;0.30;;;0.30;;
67348;SDS011;54234;50.320;3.474;2022-08-07T08:38:16;0.30;;;0.30;;
67348;SDS011;54234;50.320;3.474;2022-08-07T08:40:49;0.30;;;0.30;;
67348;SDS011;54234;50.320;3.474;2022-08-07T08:43:19;0.30;;;0.30;;
67348;SDS011;54234;50.320;3.474;2022-08-07T08:45:52;0.30;;;0.30;;
67348;SDS011;54234;50.320;3.474;2022-08-07T08:51:01;0.30;;;0.30;;
67348;SDS011;54234;50.320;3.474;2022-08-07T08:56:20;0.30;;;0.30;;
67348;SDS011;54234;50.320;3.474;2022-08-07T09:01:30;0.30;;;0.30;;
67348;SDS011;54234;50.320;3.474;2022-08-07T09:06:58;0.30;;;0.30;;
67348;SDS011;54234;50.320;3.474;2022-08-07T09:11:54;0.30;;;0.30;;
67348;SDS011;54234;50.320;3.474;2022-08-07T09:25:09;0.30;;;0.30;;
67348;SDS011;54234;50.320;3.474;2022-08-07T09:30:07;0.30;;;0.30;;
67348;SDS011;54234;50.320;3.474;2022-08-07T09:35:06;0.35;;;0.35;;
67348;SDS011;54234;50.320;3.474;2022-08-07T09:37:35;0.30;;;0.30;;
67348;SDS011;54234;50.320;3.474;2022-08-07T09:40:08;0.40;;;0.40;;
67348;SDS011;54234;50.320;3.474;2022-08-07T09:45:17;0.30;;;0.30;;
67348;SDS011;54234;50.320;3.474;2022-08-07T09:50:35;0.30;;;0.30;;
67348;SDS011;54234;50.320;3.474;2022-08-07T09:53:04;0.40;;;0.40;;
67348;SDS011;54234;50.320;3.474;2022-08-07T10:00:36;0.40;;;0.40;;
67348;SDS011;54234;50.320;3.474;2022-08-07T10:10:51;0.40;;;0.40;;
67348;SDS011;54234;50.320;3.474;2022-08-07T10:16:00;0.50;;;0.50;;
67348;SDS011;54234;50.320;3.474;2022-08-07T10:23:39;0.50;;;0.50;;
67348;SDS011;54234;50.320;3.474;2022-08-07T10:31:30;0.50;;;0.50;;
67348;SDS011;54234;50.320;3.474;2022-08-07T10:34:04;0.60;;;0.60;;
67348;SDS011;54234;50.320;3.474;2022-08-07T10:41:39;0.60;;;0.60;;
67348;SDS011;54234;50.320;3.474;2022-08-07T10:46:34;0.60;;;0.60;;
67348;SDS011;54234;50.320;3.474;2022-08-07T10:49:07;0.60;;;0.60;;
67348;SDS011;54234;50.320;3.474;2022-08-07T10:54:14;0.60;;;0.60;;
67348;SDS011;54234;50.320;3.474;2022-08-07T11:13:03;0.70;;;0.70;;
67348;SDS011;54234;50.320;3.474;2022-08-07T11:15:33;0.70;;;0.70;;
67348;SDS011;54234;50.320;3.474;2022-08-07T11:18:02;0.70;;;0.70;;
67348;SDS011;54234;50.320;3.474;2022-08-07T11:20:32;0.70;;;0.70;;
67348;SDS011;54234;50.320;3.474;2022-08-07T11:25:49;0.68;;;0.68;;
67348;SDS011;54234;50.320;3.474;2022-08-07T11:28:20;0.60;;;0.60;;
67348;SDS011;54234;50.320;3.474;2022-08-07T11:33:28;0.60;;;0.60;;
67348;SDS011;54234;50.320;3.474;2022-08-07T11:38:52;0.63;;;0.63;;
67348;SDS011;54234;50.320;3.474;2022-08-07T11:41:18;0.70;;;0.70;;
67348;SDS011;54234;50.320;3.474;2022-08-07T11:51:26;0.70;;;0.70;;
67348;SDS011;54234;50.320;3.474;2022-08-07T11:56:52;0.70;;;0.70;;
67348;SDS011;54234;50.320;3.474;2022-08-07T12:01:59;0.80;;;0.80;;
67348;SDS011;54234;50.320;3.474;2022-08-07T12:04:30;0.77;;;0.77;;
67348;SDS011;54234;50.320;3.474;2022-08-07T12:07:04;0.80;;;0.80;;
67348;SDS011;54234;50.320;3.474;2022-08-07T12:09:35;0.80;;;0.80;;
67348;SDS011;54234;50.320;3.474;2022-08-07T12:12:05;0.80;;;0.80;;
67348;SDS011;54234;50.320;3.474;2022-08-07T12:14:31;0.90;;;0.90;;
67348;SDS011;54234;50.320;3.474;2022-08-07T12:17:04;0.95;;;0.95;;
67348;SDS011;54234;50.320;3.474;2022-08-07T12:19:51;0.90;;;0.90;;
67348;SDS011;54234;50.320;3.474;2022-08-07T12:27:39;0.80;;;0.80;;
67348;SDS011;54234;50.320;3.474;2022-08-07T12:30:08;0.80;;;0.80;;
67348;SDS011;54234;50.320;3.474;2022-08-07T12:32:35;0.80;;;0.80;;
67348;SDS011;54234;50.320;3.474;2022-08-07T12:35:03;0.80;;;0.80;;
67348;SDS011;54234;50.320;3.474;2022-08-07T12:37:28;0.80;;;0.80;;
67348;SDS011;54234;50.320;3.474;2022-08-07T12:39:54;0.80;;;0.80;;
67348;SDS011;54234;50.320;3.474;2022-08-07T12:42:23;0.80;;;0.80;;
67348;SDS011;54234;50.320;3.474;2022-08-07T12:44:48;0.80;;;0.80;;
67348;SDS011;54234;50.320;3.474;2022-08-07T12:47:31;0.80;;;0.80;;
67348;SDS011;54234;50.320;3.474;2022-08-07T12:50:03;0.90;;;0.90;;
67348;SDS011;54234;50.320;3.474;2022-08-07T12:55:02;0.80;;;0.80;;
67348;SDS011;54234;50.320;3.474;2022-08-07T12:57:31;0.90;;;0.90;;
67348;SDS011;54234;50.320;3.474;2022-08-07T12:59:58;1.00;;;1.00;;
67348;SDS011;54234;50.320;3.474;2022-08-07T13:15:25;0.90;;;0.90;;
67348;SDS011;54234;50.320;3.474;2022-08-07T13:20:40;1.00;;;1.00;;
67348;SDS011;54234;50.320;3.474;2022-08-07T13:25:37;0.90;;;0.90;;
67348;SDS011;54234;50.320;3.474;2022-08-07T13:28:15;1.00;;;1.00;;
67348;SDS011;54234;50.320;3.474;2022-08-07T13:30:48;1.10;;;1.10;;
67348;SDS011;54234;50.320;3.474;2022-08-07T13:33:28;1.13;;;1.13;;
67348;SDS011;54234;50.320;3.474;2022-08-07T13:35:58;1.00;;;1.00;;
67348;SDS011;54234;50.320;3.474;2022-08-07T13:38:46;1.00;;;1.00;;
67348;SDS011;54234;50.320;3.474;2022-08-07T13:43:42;0.97;;;0.97;;
67348;SDS011;54234;50.320;3.474;2022-08-07T13:46:08;1.00;;;1.00;;
67348;SDS011;54234;50.320;3.474;2022-08-07T13:48:36;1.00;;;1.00;;
67348;SDS011;54234;50.320;3.474;2022-08-07T13:51:01;1.10;;;1.10;;
67348;SDS011;54234;50.320;3.474;2022-08-07T13:53:28;1.00;;;1.00;;
67348;SDS011;54234;50.320;3.474;2022-08-07T13:55:53;1.10;;;1.10;;
67348;SDS011;54234;50.320;3.474;2022-08-07T13:58:20;1.00;;;1.00;;
67348;SDS011;54234;50.320;3.474;2022-08-07T14:01:08;0.95;;;0.95;;
67348;SDS011;54234;50.320;3.474;2022-08-07T14:03:34;1.00;;;1.00;;
67348;SDS011;54234;50.320;3.474;2022-08-07T14:06:09;1.00;;;1.00;;
67348;SDS011;54234;50.320;3.474;2022-08-07T14:08:38;1.00;;;1.00;;
67348;SDS011;54234;50.320;3.474;2022-08-07T14:11:03;0.90;;;0.90;;
67348;SDS011;54234;50.320;3.474;2022-08-07T14:13:30;0.90;;;0.90;;
67348;SDS011;54234;50.320;3.474;2022-08-07T14:15:59;0.90;;;0.90;;
67348;SDS011;54234;50.320;3.474;2022-08-07T14:18:47;0.90;;;0.90;;
67348;SDS011;54234;50.320;3.474;2022-08-07T14:21:26;0.90;;;0.90;;
67348;SDS011;54234;50.320;3.474;2022-08-07T14:23:56;0.80;;;0.80;;
67348;SDS011;54234;50.320;3.474;2022-08-07T14:26:25;0.70;;;0.70;;
67348;SDS011;54234;50.320;3.474;2022-08-07T14:28:53;0.70;;;0.70;;
67348;SDS011;54234;50.320;3.474;2022-08-07T14:31:21;0.70;;;0.70;;
67348;SDS011;54234;50.320;3.474;2022-08-07T14:33:46;0.60;;;0.60;;
67348;SDS011;54234;50.320;3.474;2022-08-07T14:36:12;0.70;;;0.70;;
67348;SDS011;54234;50.320;3.474;2022-08-07T14:38:37;0.70;;;0.70;;
67348;SDS011;54234;50.320;3.474;2022-08-07T14:41:06;0.70;;;0.70;;
67348;SDS011;54234;50.320;3.474;2022-08-07T14:43:37;0.60;;;0.60;;
67348;SDS011;54234;50.320;3.474;2022-08-07T14:46:03;0.60;;;0.60;;
67348;SDS011;54234;50.320;3.474;2022-08-07T14:48:33;0.50;;;0.50;;
67348;SDS011;54234;50.320;3.474;2022-08-07T14:51:08;0.50;;;0.50;;
67348;SDS011;54234;50.320;3.474;2022-08-07T14:53:37;0.50;;;0.50;;
67348;SDS011;54234;50.320;3.474;2022-08-07T14:56:03;0.45;;;0.45;;
67348;SDS011;54234;50.320;3.474;2022-08-07T14:58:30;0.40;;;0.40;;
67348;SDS011;54234;50.320;3.474;2022-08-07T15:00:56;0.40;;;0.40;;
67348;SDS011;54234;50.320;3.474;2022-08-07T15:03:22;0.40;;;0.40;;
67348;SDS011;54234;50.320;3.474;2022-08-07T15:05:48;0.40;;;0.40;;
67348;SDS011;54234;50.320;3.474;2022-08-07T15:08:13;0.40;;;0.40;;
67348;SDS011;54234;50.320;3.474;2022-08-07T15:10:45;0.40;;;0.40;;
67348;SDS011;54234;50.320;3.474;2022-08-07T15:13:18;0.35;;;0.35;;
67348;SDS011;54234;50.320;3.474;2022-08-07T15:15:47;0.40;;;0.40;;
67348;SDS011;54234;50.320;3.474;2022-08-07T15:18:20;0.40;;;0.40;;
67348;SDS011;54234;50.320;3.474;2022-08-07T15:20:46;0.40;;;0.40;;
67348;SDS011;54234;50.320;3.474;2022-08-07T15:23:14;0.40;;;0.40;;
67348;SDS011;54234;50.320;3.474;2022-08-07T15:25:44;0.37;;;0.37;;
67348;SDS011;54234;50.320;3.474;2022-08-07T15:28:10;0.40;;;0.40;;
67348;SDS011;54234;50.320;3.474;2022-08-07T15:30:36;0.30;;;0.30;;
67348;SDS011;54234;50.320;3.474;2022-08-07T15:33:03;0.30;;;0.30;;
67348;SDS011;54234;50.320;3.474;2022-08-07T15:35:29;0.30;;;0.30;;
67348;SDS011;54234;50.320;3.474;2022-08-07T15:37:57;0.30;;;0.30;;
67348;SDS011;54234;50.320;3.474;2022-08-07T15:40:22;0.30;;;0.30;;
67348;SDS011;54234;50.320;3.474;2022-08-07T15:42:56;0.30;;;0.30;;
67348;SDS011;54234;50.320;3.474;2022-08-07T15:47:52;0.30;;;0.30;;
67348;SDS011;54234;50.320;3.474;2022-08-07T15:50:26;0.30;;;0.30;;
67348;SDS011;54234;50.320;3.474;2022-08-07T15:52:52;0.30;;;0.30;;
67348;SDS011;54234;50.320;3.474;2022-08-07T15:55:22;0.30;;;0.30;;
67348;SDS011;54234;50.320;3.474;2022-08-07T15:57:51;0.30;;;0.30;;
67348;SDS011;54234;50.320;3.474;2022-08-07T16:00:18;0.30;;;0.30;;
67348;SDS011;54234;50.320;3.474;2022-08-07T16:02:44;0.30;;;0.30;;
67348;SDS011;54234;50.320;3.474;2022-08-07T16:05:14;0.30;;;0.30;;
67348;SDS011;54234;50.320;3.474;2022-08-07T16:08:03;0.30;;;0.30;;
67348;SDS011;54234;50.320;3.474;2022-08-07T16:10:26;0.30;;;0.30;;
67348;SDS011;54234;50.320;3.474;2022-08-07T16:28:31;0.30;;;0.30;;
67348;SDS011;54234;50.320;3.474;2022-08-07T16:33:28;0.30;;;0.30;;
67348;SDS011;54234;50.320;3.474;2022-08-07T16:57:10;0.30;;;0.30;;
67348;SDS011;54234;50.320;3.474;2022-08-07T17:02:44;0.30;;;0.30;;
67348;SDS011;54234;50.320;3.474;2022-08-07T17:07:51;0.30;;;0.30;;
67348;SDS011;54234;50.320;3.474;2022-08-07T17:10:21;0.30;;;0.30;;
67348;SDS011;54234;50.320;3.474;2022-08-07T17:15:40;0.30;;;0.30;;
67348;SDS011;54234;50.320;3.474;2022-08-07T17:20:37;0.30;;;0.30;;
67348;SDS011;54234;50.320;3.474;2022-08-07T17:25:54;0.30;;;0.30;;
67348;SDS011;54234;50.320;3.474;2022-08-07T17:31:16;0.40;;;0.40;;
67348;SDS011;54234;50.320;3.474;2022-08-07T17:33:44;0.30;;;0.30;;
67348;SDS011;54234;50.320;3.474;2022-08-07T17:36:11;0.30;;;0.30;;
67348;SDS011;54234;50.320;3.474;2022-08-07T17:41:28;0.40;;;0.40;;
67348;SDS011;54234;50.320;3.474;2022-08-07T17:44:09;0.30;;;0.30;;
67348;SDS011;54234;50.320;3.474;2022-08-07T17:46:57;0.30;;;0.30;;
67348;SDS011;54234;50.320;3.474;2022-08-07T17:49:22;0.40;;;0.40;;
67348;SDS011;54234;50.320;3.474;2022-08-07T17:51:55;0.40;;;0.40;;
67348;SDS011;54234;50.320;3.474;2022-08-07T17:57:10;0.30;;;0.30;;
67348;SDS011;54234;50.320;3.474;2022-08-07T17:59:46;0.30;;;0.30;;
67348;SDS011;54234;50.320;3.474;2022-08-07T18:02:15;0.30;;;0.30;;
67348;SDS011;54234;50.320;3.474;2022-08-07T18:04:46;0.30;;;0.30;;
67348;SDS011;54234;50.320;3.474;2022-08-07T18:09:49;0.30;;;0.30;;
67348;SDS011;54234;50.320;3.474;2022-08-07T18:12:22;0.30;;;0.30;;
67348;SDS011;54234;50.320;3.474;2022-08-07T18:19:53;0.38;;;0.38;;
67348;SDS011;54234;50.320;3.474;2022-08-07T18:24:52;0.30;;;0.30;;
67348;SDS011;54234;50.320;3.474;2022-08-07T18:30:02;0.35;;;0.35;;
67348;SDS011;54234;50.320;3.474;2022-08-07T18:35:21;0.30;;;0.30;;
67348;SDS011;54234;50.320;3.474;2022-08-07T18:45:09;0.30;;;0.30;;
67348;SDS011;54234;50.320;3.474;2022-08-07T18:50:31;0.30;;;0.30;;
67348;SDS011;54234;50.320;3.474;2022-08-07T18:55:50;0.30;;;0.30;;
67348;SDS011;54234;50.320;3.474;2022-08-07T19:03:52;0.30;;;0.30;;